sensor_id;sensor_type;location;lat;lon;timestamp;pressure;altitude;pressure_sealevel;temperature;humidity
3150;BME280;32503;47.748;8.960;2023-01-31T00:01:14;97909.88;;;2.91;70.08
3150;BME280;32503;47.748;8.960;2023-01-31T00:03:42;97894.44;;;2.83;69.89
3150;BME280;32503;47.748;8.960;2023-01-31T00:06:12;97896.34;;;2.77;70.31
3150;BME280;32503;47.748;8.960;2023-01-31T00:08:40;97906.13;;;2.87;70.06
3150;BME280;32503;47.748;8.960;2023-01-31T00:11:08;97889.09;;;2.83;70.49
3150;BME280;32503;47.748;8.960;2023-01-31T00:13:35;97900.31;;;2.80;69.97
3150;BME280;32503;47.748;8.960;2023-01-31T00:16:03;97894.22;;;2.74;69.80
3150;BME280;32503;47.748;8.960;2023-01-31T00:18:32;97892.88;;;2.72;70.02
3150;BME280;32503;47.748;8.960;2023-01-31T00:21:08;97873.44;;;2.66;69.79
3150;BME280;32503;47.748;8.960;2023-01-31T00:23:36;97876.94;;;2.67;69.51
3150;BME280;32503;47.748;8.960;2023-01-31T00:26:12;97875.31;;;2.65;69.69
3150;BME280;32503;47.748;8.960;2023-01-31T00:28:40;97882.31;;;2.61;69.76
3150;BME280;32503;47.748;8.960;2023-01-31T00:31:09;97882.31;;;2.56;69.34
3150;BME280;32503;47.748;8.960;2023-01-31T00:33:42;97888.47;;;2.52;69.35
3150;BME280;32503;47.748;8.960;2023-01-31T00:36:13;97891.97;;;2.47;69.69
3150;BME280;32503;47.748;8.960;2023-01-31T00:38:41;97892.53;;;2.44;69.58
3150;BME280;32503;47.748;8.960;2023-01-31T00:41:09;97887.75;;;2.41;69.65
3150;BME280;32503;47.748;8.960;2023-01-31T00:43:37;97885.91;;;2.36;69.08
3150;BME280;32503;47.748;8.960;2023-01-31T00:46:04;97889.38;;;2.37;69.26
3150;BME280;32503;47.748;8.960;2023-01-31T00:48:32;97883.50;;;2.35;69.09
3150;BME280;32503;47.748;8.960;2023-01-31T00:51:01;97881.91;;;2.34;68.95
3150;BME280;32503;47.748;8.960;2023-01-31T00:53:28;97876.56;;;2.34;69.31
3150;BME280;32503;47.748;8.960;2023-01-31T00:56:01;97872.91;;;2.24;69.17
3150;BME280;32503;47.748;8.960;2023-01-31T00:58:28;97873.66;;;2.30;69.00
3150;BME280;32503;47.748;8.960;2023-01-31T01:00:55;97871.84;;;2.20;68.96
3150;BME280;32503;47.748;8.960;2023-01-31T01:03:22;97875.34;;;2.16;69.05
3150;BME280;32503;47.748;8.960;2023-01-31T01:05:49;97866.28;;;2.12;69.16
3150;BME280;32503;47.748;8.960;2023-01-31T01:08:17;97871.34;;;2.08;68.68
3150;BME280;32503;47.748;8.960;2023-01-31T01:10:44;97874.03;;;2.08;69.06
3150;BME280;32503;47.748;8.960;2023-01-31T01:13:11;97873.25;;;2.02;68.95
3150;BME280;32503;47.748;8.960;2023-01-31T01:15:39;97871.13;;;1.99;68.53
3150;BME280;32503;47.748;8.960;2023-01-31T01:18:06;97874.09;;;1.98;69.05
3150;BME280;32503;47.748;8.960;2023-01-31T01:20:34;97883.72;;;1.88;68.48
3150;BME280;32503;47.748;8.960;2023-01-31T01:23:01;97885.06;;;1.81;68.95
3150;BME280;32503;47.748;8.960;2023-01-31T01:25:29;97884.03;;;1.72;69.64
3150;BME280;32503;47.748;8.960;2023-01-31T01:27:57;97894.97;;;1.70;69.72
3150;BME280;32503;47.748;8.960;2023-01-31T01:30:24;97889.13;;;1.73;69.68
3150;BME280;32503;47.748;8.960;2023-01-31T01:32:53;97894.16;;;1.75;69.84
3150;BME280;32503;47.748;8.960;2023-01-31T01:35:21;97904.53;;;1.76;69.90
3150;BME280;32503;47.748;8.960;2023-01-31T01:37:48;97899.78;;;1.68;69.93
3150;BME280;32503;47.748;8.960;2023-01-31T01:40:15;97902.19;;;1.69;70.02
3150;BME280;32503;47.748;8.960;2023-01-31T01:42:44;97898.16;;;1.72;69.75
3150;BME280;32503;47.748;8.960;2023-01-31T01:45:13;97891.53;;;1.69;70.09
3150;BME280;32503;47.748;8.960;2023-01-31T01:47:45;97901.09;;;1.70;69.81
3150;BME280;32503;47.748;8.960;2023-01-31T01:50:19;97898.16;;;1.72;69.60
3150;BME280;32503;47.748;8.960;2023-01-31T01:52:51;97888.88;;;1.59;69.78
3150;BME280;32503;47.748;8.960;2023-01-31T01:55:23;97894.47;;;1.58;69.53
3150;BME280;32503;47.748;8.960;2023-01-31T01:57:59;97897.94;;;1.58;69.39
3150;BME280;32503;47.748;8.960;2023-01-31T02:00:28;97887.25;;;1.58;69.61
3150;BME280;32503;47.748;8.960;2023-01-31T02:02:59;97897.13;;;1.63;69.33
3150;BME280;32503;47.748;8.960;2023-01-31T02:05:31;97892.59;;;1.63;68.62
3150;BME280;32503;47.748;8.960;2023-01-31T02:07:59;97876.09;;;1.41;68.80
3150;BME280;32503;47.748;8.960;2023-01-31T02:10:32;97895.53;;;1.46;68.85
3150;BME280;32503;47.748;8.960;2023-01-31T02:13:03;97898.75;;;1.48;68.65
3150;BME280;32503;47.748;8.960;2023-01-31T02:15:30;97902.22;;;1.44;68.37
3150;BME280;32503;47.748;8.960;2023-01-31T02:17:59;97884.94;;;1.36;68.86
3150;BME280;32503;47.748;8.960;2023-01-31T02:20:48;97896.09;;;1.38;68.99
3150;BME280;32503;47.748;8.960;2023-01-31T02:23:47;97901.69;;;1.37;68.60
3150;BME280;32503;47.748;8.960;2023-01-31T02:27:16;97907.28;;;1.35;68.94
3150;BME280;32503;47.748;8.960;2023-01-31T02:30:27;97910.50;;;1.32;68.72
3150;BME280;32503;47.748;8.960;2023-01-31T02:33:09;97900.34;;;1.34;68.80
3150;BME280;32503;47.748;8.960;2023-01-31T02:35:50;97905.16;;;1.32;68.88
3150;BME280;32503;47.748;8.960;2023-01-31T02:38:35;97906.25;;;1.36;68.61
3150;BME280;32503;47.748;8.960;2023-01-31T02:41:16;97911.84;;;1.35;69.02
3150;BME280;32503;47.748;8.960;2023-01-31T02:43:53;97914.75;;;1.38;68.67
3150;BME280;32503;47.748;8.960;2023-01-31T02:46:54;97911.31;;;1.32;68.44
3150;BME280;32503;47.748;8.960;2023-01-31T02:49:32;97918.47;;;1.37;69.59
3150;BME280;32503;47.748;8.960;2023-01-31T02:52:11;97919.56;;;1.41;69.32
3150;BME280;32503;47.748;8.960;2023-01-31T02:54:57;97915.56;;;1.39;69.52
3150;BME280;32503;47.748;8.960;2023-01-31T02:57:44;97919.28;;;1.38;69.82
3150;BME280;32503;47.748;8.960;2023-01-31T03:00:15;97912.88;;;1.33;70.22
3150;BME280;32503;47.748;8.960;2023-01-31T03:02:42;97913.41;;;1.30;70.39
3150;BME280;32503;47.748;8.960;2023-01-31T03:05:14;97912.09;;;1.33;70.61
3150;BME280;32503;47.748;8.960;2023-01-31T03:07:42;97902.22;;;1.23;70.63
3150;BME280;32503;47.748;8.960;2023-01-31T03:10:22;97909.44;;;1.28;71.13
3150;BME280;32503;47.748;8.960;2023-01-31T03:13:09;97901.72;;;1.26;71.00
3150;BME280;32503;47.748;8.960;2023-01-31T03:15:46;97911.56;;;1.26;70.76
3150;BME280;32503;47.748;8.960;2023-01-31T03:18:45;97919.56;;;1.21;71.84
3150;BME280;32503;47.748;8.960;2023-01-31T03:21:19;97916.13;;;1.15;71.87
3150;BME280;32503;47.748;8.960;2023-01-31T03:23:54;97912.38;;;1.26;71.36
3150;BME280;32503;47.748;8.960;2023-01-31T03:26:24;97913.16;;;1.27;71.71
3150;BME280;32503;47.748;8.960;2023-01-31T03:28:53;97920.63;;;1.25;71.55
3150;BME280;32503;47.748;8.960;2023-01-31T03:31:25;97924.38;;;1.24;71.61
3150;BME280;32503;47.748;8.960;2023-01-31T03:33:58;97931.28;;;1.25;71.96
3150;BME280;32503;47.748;8.960;2023-01-31T03:36:32;97924.91;;;1.21;71.76
3150;BME280;32503;47.748;8.960;2023-01-31T03:39:12;97935.03;;;1.24;71.95
3150;BME280;32503;47.748;8.960;2023-01-31T03:41:54;97942.75;;;1.25;72.71
3150;BME280;32503;47.748;8.960;2023-01-31T03:44:31;97933.94;;;1.25;72.83
3150;BME280;32503;47.748;8.960;2023-01-31T03:47:05;97941.94;;;1.35;72.43
3150;BME280;32503;47.748;8.960;2023-01-31T03:49:37;97949.41;;;1.33;72.43
3150;BME280;32503;47.748;8.960;2023-01-31T03:52:10;97950.97;;;1.34;72.92
3150;BME280;32503;47.748;8.960;2023-01-31T03:54:42;97943.53;;;1.31;73.05
3150;BME280;32503;47.748;8.960;2023-01-31T03:57:15;97944.34;;;1.37;73.22
3150;BME280;32503;47.748;8.960;2023-01-31T03:59:47;97931.53;;;1.28;73.75
3150;BME280;32503;47.748;8.960;2023-01-31T04:02:22;97949.94;;;1.40;73.49
3150;BME280;32503;47.748;8.960;2023-01-31T04:04:54;97930.75;;;1.38;73.84
3150;BME280;32503;47.748;8.960;2023-01-31T04:07:23;97928.59;;;1.40;73.28
3150;BME280;32503;47.748;8.960;2023-01-31T04:09:50;97930.22;;;1.41;73.43
3150;BME280;32503;47.748;8.960;2023-01-31T04:12:17;97938.75;;;1.43;73.62
3150;BME280;32503;47.748;8.960;2023-01-31T04:14:44;97947.00;;;1.47;73.48
3150;BME280;32503;47.748;8.960;2023-01-31T04:17:11;97948.84;;;1.46;73.64
3150;BME280;32503;47.748;8.960;2023-01-31T04:19:38;97960.06;;;1.43;73.86
3150;BME280;32503;47.748;8.960;2023-01-31T04:22:06;97958.44;;;1.42;73.87
3150;BME280;32503;47.748;8.960;2023-01-31T04:24:35;97966.19;;;1.44;74.14
3150;BME280;32503;47.748;8.960;2023-01-31T04:27:02;97965.38;;;1.43;74.60
3150;BME280;32503;47.748;8.960;2023-01-31T04:29:29;97968.31;;;1.42;74.32
3150;BME280;32503;47.748;8.960;2023-01-31T04:31:56;97956.88;;;1.41;74.79
3150;BME280;32503;47.748;8.960;2023-01-31T04:34:23;97956.88;;;1.41;74.82
3150;BME280;32503;47.748;8.960;2023-01-31T04:36:50;97950.97;;;1.44;75.07
3150;BME280;32503;47.748;8.960;2023-01-31T04:39:17;97959.25;;;1.43;74.98
3150;BME280;32503;47.748;8.960;2023-01-31T04:41:46;97954.16;;;1.46;74.86
3150;BME280;32503;47.748;8.960;2023-01-31T04:44:13;97958.97;;;1.49;74.57
3150;BME280;32503;47.748;8.960;2023-01-31T04:46:41;97933.94;;;1.40;74.78
3150;BME280;32503;47.748;8.960;2023-01-31T04:49:08;97958.19;;;1.49;75.11
3150;BME280;32503;47.748;8.960;2023-01-31T04:51:35;97974.97;;;1.60;75.27
3150;BME280;32503;47.748;8.960;2023-01-31T04:54:03;97963.78;;;1.58;74.84
3150;BME280;32503;47.748;8.960;2023-01-31T04:56:30;97978.94;;;1.62;74.85
3150;BME280;32503;47.748;8.960;2023-01-31T04:58:59;97970.16;;;1.67;74.67
3150;BME280;32503;47.748;8.960;2023-01-31T05:01:26;97968.00;;;1.69;74.73
3150;BME280;32503;47.748;8.960;2023-01-31T05:03:53;97958.44;;;1.63;74.88
3150;BME280;32503;47.748;8.960;2023-01-31T05:06:21;97971.75;;;1.73;74.49
3150;BME280;32503;47.748;8.960;2023-01-31T05:08:48;97977.34;;;1.72;74.85
3150;BME280;32503;47.748;8.960;2023-01-31T05:11:17;97986.94;;;1.73;74.52
3150;BME280;32503;47.748;8.960;2023-01-31T05:13:44;97988.28;;;1.75;74.70
3150;BME280;32503;47.748;8.960;2023-01-31T05:16:14;97992.78;;;1.80;74.66
3150;BME280;32503;47.748;8.960;2023-01-31T05:18:41;98001.06;;;1.83;74.60
3150;BME280;32503;47.748;8.960;2023-01-31T05:21:09;97997.34;;;1.84;74.46
3150;BME280;32503;47.748;8.960;2023-01-31T05:23:36;97997.59;;;1.88;74.30
3150;BME280;32503;47.748;8.960;2023-01-31T05:26:04;97997.84;;;1.92;74.55
3150;BME280;32503;47.748;8.960;2023-01-31T05:28:31;97991.97;;;1.95;74.19
3150;BME280;32503;47.748;8.960;2023-01-31T05:31:02;97999.44;;;1.98;74.15
3150;BME280;32503;47.748;8.960;2023-01-31T05:33:31;97983.19;;;1.89;74.44
3150;BME280;32503;47.748;8.960;2023-01-31T05:35:59;97999.16;;;1.99;74.06
3150;BME280;32503;47.748;8.960;2023-01-31T05:38:26;98005.28;;;2.10;74.31
3150;BME280;32503;47.748;8.960;2023-01-31T05:40:53;97998.59;;;2.13;73.79
3150;BME280;32503;47.748;8.960;2023-01-31T05:43:20;97998.59;;;2.18;74.44
3150;BME280;32503;47.748;8.960;2023-01-31T05:45:48;97996.19;;;2.21;74.16
3150;BME280;32503;47.748;8.960;2023-01-31T05:48:15;97997.22;;;2.25;73.67
3150;BME280;32503;47.748;8.960;2023-01-31T05:50:43;97990.31;;;2.24;74.20
3150;BME280;32503;47.748;8.960;2023-01-31T05:53:10;98003.09;;;2.27;74.11
3150;BME280;32503;47.748;8.960;2023-01-31T05:55:37;98008.97;;;2.30;73.78
3150;BME280;32503;47.748;8.960;2023-01-31T05:58:04;98018.28;;;2.32;74.38
3150;BME280;32503;47.748;8.960;2023-01-31T06:00:31;98003.88;;;2.33;74.04
3150;BME280;32503;47.748;8.960;2023-01-31T06:02:58;98016.91;;;2.40;74.24
3150;BME280;32503;47.748;8.960;2023-01-31T06:05:26;98012.56;;;2.59;76.59
3150;BME280;32503;47.748;8.960;2023-01-31T06:07:54;98013.28;;;3.30;74.95
3150;BME280;32503;47.748;8.960;2023-01-31T06:10:21;98023.75;;;3.21;73.49
3150;BME280;32503;47.748;8.960;2023-01-31T06:12:48;98006.47;;;3.03;73.03
3150;BME280;32503;47.748;8.960;2023-01-31T06:15:16;98007.34;;;2.94;73.24
3150;BME280;32503;47.748;8.960;2023-01-31T06:17:43;98021.53;;;2.84;72.45
3150;BME280;32503;47.748;8.960;2023-01-31T06:20:11;98019.97;;;2.78;73.12
3150;BME280;32503;47.748;8.960;2023-01-31T06:22:38;98015.19;;;2.75;72.96
3150;BME280;32503;47.748;8.960;2023-01-31T06:25:08;98023.78;;;2.67;72.72
3150;BME280;32503;47.748;8.960;2023-01-31T06:27:35;98017.38;;;2.62;73.22
3150;BME280;32503;47.748;8.960;2023-01-31T06:30:02;98012.56;;;2.64;73.12
3150;BME280;32503;47.748;8.960;2023-01-31T06:32:31;98016.84;;;2.65;72.86
3150;BME280;32503;47.748;8.960;2023-01-31T06:34:58;98023.22;;;2.64;72.70
3150;BME280;32503;47.748;8.960;2023-01-31T06:37:25;98025.38;;;2.68;73.00
3150;BME280;32503;47.748;8.960;2023-01-31T06:39:52;98029.13;;;2.67;72.88
3150;BME280;32503;47.748;8.960;2023-01-31T06:42:20;98021.38;;;2.65;72.81
3150;BME280;32503;47.748;8.960;2023-01-31T06:44:48;98020.03;;;2.68;72.47
3150;BME280;32503;47.748;8.960;2023-01-31T06:47:15;98015.78;;;2.67;72.17
3150;BME280;32503;47.748;8.960;2023-01-31T06:49:42;98013.84;;;2.77;72.52
3150;BME280;32503;47.748;8.960;2023-01-31T06:52:09;98015.94;;;2.80;72.24
3150;BME280;32503;47.748;8.960;2023-01-31T06:54:36;98023.16;;;2.85;71.79
3150;BME280;32503;47.748;8.960;2023-01-31T06:57:03;97984.28;;;2.58;71.69
3150;BME280;32503;47.748;8.960;2023-01-31T06:59:31;98024.53;;;2.77;71.74
3150;BME280;32503;47.748;8.960;2023-01-31T07:01:58;98030.66;;;2.78;71.58
3150;BME280;32503;47.748;8.960;2023-01-31T07:04:25;98029.06;;;2.77;71.31
3150;BME280;32503;47.748;8.960;2023-01-31T07:06:52;98025.56;;;2.81;71.25
3150;BME280;32503;47.748;8.960;2023-01-31T07:09:19;98025.31;;;2.78;71.30
3150;BME280;32503;47.748;8.960;2023-01-31T07:11:46;98032.28;;;2.79;71.35
3150;BME280;32503;47.748;8.960;2023-01-31T07:14:14;98022.69;;;2.68;71.35
3150;BME280;32503;47.748;8.960;2023-01-31T07:16:42;98037.91;;;2.72;71.00
3150;BME280;32503;47.748;8.960;2023-01-31T07:19:09;98051.00;;;2.74;71.37
3150;BME280;32503;47.748;8.960;2023-01-31T07:21:36;98051.50;;;2.76;71.41
3150;BME280;32503;47.748;8.960;2023-01-31T07:24:04;98054.19;;;2.76;71.15
3150;BME280;32503;47.748;8.960;2023-01-31T07:26:31;98058.97;;;2.79;70.73
3150;BME280;32503;47.748;8.960;2023-01-31T07:28:59;98050.41;;;2.82;70.57
3150;BME280;32503;47.748;8.960;2023-01-31T07:31:26;98053.06;;;2.82;71.12
3150;BME280;32503;47.748;8.960;2023-01-31T07:33:55;98060.28;;;2.81;70.78
3150;BME280;32503;47.748;8.960;2023-01-31T07:36:22;98056.25;;;2.84;70.40
3150;BME280;32503;47.748;8.960;2023-01-31T07:38:53;98035.75;;;2.74;70.57
3150;BME280;32503;47.748;8.960;2023-01-31T07:41:21;98037.63;;;2.79;70.37
3150;BME280;32503;47.748;8.960;2023-01-31T07:43:48;98047.44;;;2.89;69.98
3150;BME280;32503;47.748;8.960;2023-01-31T07:46:16;98042.63;;;2.85;70.24
3150;BME280;32503;47.748;8.960;2023-01-31T07:48:43;98033.81;;;2.90;70.20
3150;BME280;32503;47.748;8.960;2023-01-31T07:51:12;97981.09;;;2.61;69.95
3150;BME280;32503;47.748;8.960;2023-01-31T07:53:39;98009.22;;;2.93;70.41
3150;BME280;32503;47.748;8.960;2023-01-31T07:56:10;98028.91;;;3.08;70.38
3150;BME280;32503;47.748;8.960;2023-01-31T07:58:39;98028.25;;;3.26;69.96
3150;BME280;32503;47.748;8.960;2023-01-31T08:01:08;98029.22;;;3.40;69.68
3150;BME280;32503;47.748;8.960;2023-01-31T08:03:53;98034.13;;;3.63;68.82
3150;BME280;32503;47.748;8.960;2023-01-31T08:06:22;98031.91;;;3.75;68.47
3150;BME280;32503;47.748;8.960;2023-01-31T08:08:49;98024.09;;;3.78;68.46
3150;BME280;32503;47.748;8.960;2023-01-31T08:11:16;98024.53;;;3.91;68.10
3150;BME280;32503;47.748;8.960;2023-01-31T08:13:43;98027.72;;;3.93;68.07
3150;BME280;32503;47.748;8.960;2023-01-31T08:16:10;98022.84;;;4.00;68.04
3150;BME280;32503;47.748;8.960;2023-01-31T08:18:38;98018.53;;;4.04;68.05
3150;BME280;32503;47.748;8.960;2023-01-31T08:21:06;98021.84;;;4.20;67.96
3150;BME280;32503;47.748;8.960;2023-01-31T08:23:34;98024.13;;;4.56;67.77
3150;BME280;32503;47.748;8.960;2023-01-31T08:26:05;97998.00;;;4.67;67.07
3150;BME280;32503;47.748;8.960;2023-01-31T08:28:34;98019.25;;;6.05;66.11
3150;BME280;32503;47.748;8.960;2023-01-31T08:33:13;98009.56;;;9.64;56.23
3150;BME280;32503;47.748;8.960;2023-01-31T08:35:40;98011.00;;;10.94;51.00
3150;BME280;32503;47.748;8.960;2023-01-31T08:38:07;98013.22;;;11.89;47.13
3150;BME280;32503;47.748;8.960;2023-01-31T08:40:34;98013.38;;;12.50;45.55
3150;BME280;32503;47.748;8.960;2023-01-31T08:43:01;98016.19;;;12.91;44.22
3150;BME280;32503;47.748;8.960;2023-01-31T08:45:29;98003.84;;;13.06;43.02
3150;BME280;32503;47.748;8.960;2023-01-31T08:47:58;97999.50;;;13.17;42.26
3150;BME280;32503;47.748;8.960;2023-01-31T08:50:29;97998.47;;;13.22;42.20
3150;BME280;32503;47.748;8.960;2023-01-31T08:52:59;98009.69;;;13.33;41.05
3150;BME280;32503;47.748;8.960;2023-01-31T08:55:28;97973.75;;;12.99;41.43
3150;BME280;32503;47.748;8.960;2023-01-31T08:57:55;98004.28;;;13.08;41.47
3150;BME280;32503;47.748;8.960;2023-01-31T09:00:23;97992.06;;;13.02;41.43
3150;BME280;32503;47.748;8.960;2023-01-31T09:02:54;97999.31;;;12.98;41.83
3150;BME280;32503;47.748;8.960;2023-01-31T09:05:22;98011.63;;;13.07;41.53
3150;BME280;32503;47.748;8.960;2023-01-31T09:07:51;98004.38;;;13.12;40.96
3150;BME280;32503;47.748;8.960;2023-01-31T09:10:19;97999.94;;;13.19;40.97
3150;BME280;32503;47.748;8.960;2023-01-31T09:12:47;98018.94;;;13.32;40.83
3150;BME280;32503;47.748;8.960;2023-01-31T09:15:14;98007.41;;;13.35;40.83
3150;BME280;32503;47.748;8.960;2023-01-31T09:17:41;98003.78;;;13.43;40.67
3150;BME280;32503;47.748;8.960;2023-01-31T09:20:10;98006.72;;;13.25;40.15
3150;BME280;32503;47.748;8.960;2023-01-31T09:22:37;97998.16;;;12.99;40.90
3150;BME280;32503;47.748;8.960;2023-01-31T09:25:07;98007.69;;;12.93;41.12
3150;BME280;32503;47.748;8.960;2023-01-31T09:27:35;98000.47;;;12.84;41.08
3150;BME280;32503;47.748;8.960;2023-01-31T09:30:06;97983.41;;;12.59;41.11
3150;BME280;32503;47.748;8.960;2023-01-31T09:32:33;97981.47;;;12.47;41.51
3150;BME280;32503;47.748;8.960;2023-01-31T09:35:00;98010.75;;;12.54;41.38
3150;BME280;32503;47.748;8.960;2023-01-31T09:37:28;98019.44;;;12.35;41.80
3150;BME280;32503;47.748;8.960;2023-01-31T09:39:56;98013.81;;;12.40;41.55
3150;BME280;32503;47.748;8.960;2023-01-31T09:42:28;98026.25;;;12.54;41.40
3150;BME280;32503;47.748;8.960;2023-01-31T09:45:01;98027.81;;;12.67;41.34
3150;BME280;32503;47.748;8.960;2023-01-31T09:47:32;98012.69;;;12.90;40.77
3150;BME280;32503;47.748;8.960;2023-01-31T09:50:04;97984.66;;;12.62;41.02
3150;BME280;32503;47.748;8.960;2023-01-31T09:52:35;98016.03;;;13.12;40.82
3150;BME280;32503;47.748;8.960;2023-01-31T09:55:28;98014.50;;;13.39;40.25
3150;BME280;32503;47.748;8.960;2023-01-31T09:58:05;98012.16;;;13.38;39.08
3150;BME280;32503;47.748;8.960;2023-01-31T10:00:44;97980.75;;;13.00;39.06
3150;BME280;32503;47.748;8.960;2023-01-31T10:03:40;98007.94;;;12.75;39.62
3150;BME280;32503;47.748;8.960;2023-01-31T10:06:19;98013.34;;;12.26;41.16
3150;BME280;32503;47.748;8.960;2023-01-31T10:08:53;97987.13;;;12.30;43.88
3150;BME280;32503;47.748;8.960;2023-01-31T10:11:30;98010.06;;;13.06;41.45
3150;BME280;32503;47.748;8.960;2023-01-31T10:14:19;97998.84;;;13.08;40.33
3150;BME280;32503;47.748;8.960;2023-01-31T10:16:58;98000.66;;;12.92;39.85
3150;BME280;32503;47.748;8.960;2023-01-31T10:19:31;98012.03;;;12.57;39.97
3150;BME280;32503;47.748;8.960;2023-01-31T10:22:04;98007.19;;;11.92;41.32
3150;BME280;32503;47.748;8.960;2023-01-31T10:24:38;98007.03;;;11.55;42.47
3150;BME280;32503;47.748;8.960;2023-01-31T10:27:13;98007.44;;;11.45;42.83
3150;BME280;32503;47.748;8.960;2023-01-31T10:29:49;97993.69;;;11.50;42.76
3150;BME280;32503;47.748;8.960;2023-01-31T10:32:23;97999.34;;;11.57;42.71
3150;BME280;32503;47.748;8.960;2023-01-31T10:34:57;97986.38;;;11.63;42.87
3150;BME280;32503;47.748;8.960;2023-01-31T10:37:34;97992.09;;;12.16;43.27
3150;BME280;32503;47.748;8.960;2023-01-31T10:40:12;97966.34;;;12.34;41.88
3150;BME280;32503;47.748;8.960;2023-01-31T10:42:43;97977.63;;;12.73;41.51
3150;BME280;32503;47.748;8.960;2023-01-31T10:45:17;97973.22;;;12.68;39.58
3150;BME280;32503;47.748;8.960;2023-01-31T10:47:50;97969.41;;;12.32;41.62
3150;BME280;32503;47.748;8.960;2023-01-31T10:50:23;97982.91;;;11.95;42.21
3150;BME280;32503;47.748;8.960;2023-01-31T10:53:09;97982.69;;;11.67;42.50
3150;BME280;32503;47.748;8.960;2023-01-31T10:55:50;97951.06;;;11.05;43.27
3150;BME280;32503;47.748;8.960;2023-01-31T10:58:21;97970.75;;;10.63;44.63
3150;BME280;32503;47.748;8.960;2023-01-31T11:00:50;97961.69;;;10.29;45.50
3150;BME280;32503;47.748;8.960;2023-01-31T11:03:17;97945.91;;;10.01;46.36
3150;BME280;32503;47.748;8.960;2023-01-31T11:05:48;97944.66;;;9.99;46.85
3150;BME280;32503;47.748;8.960;2023-01-31T11:08:27;97909.97;;;9.62;47.00
3150;BME280;32503;47.748;8.960;2023-01-31T11:10:57;97893.31;;;9.52;46.82
3150;BME280;32503;47.748;8.960;2023-01-31T11:13:24;97931.53;;;9.71;47.20
3150;BME280;32503;47.748;8.960;2023-01-31T11:15:53;97927.88;;;9.76;47.26
3150;BME280;32503;47.748;8.960;2023-01-31T11:18:33;97929.53;;;9.51;47.55
3150;BME280;32503;47.748;8.960;2023-01-31T11:21:02;97927.00;;;9.45;47.82
3150;BME280;32503;47.748;8.960;2023-01-31T11:23:32;97924.47;;;9.23;47.99
3150;BME280;32503;47.748;8.960;2023-01-31T11:26:00;97911.81;;;8.97;47.89
3150;BME280;32503;47.748;8.960;2023-01-31T11:28:34;97892.44;;;8.78;48.61
3150;BME280;32503;47.748;8.960;2023-01-31T11:31:14;97874.69;;;8.68;49.07
3150;BME280;32503;47.748;8.960;2023-01-31T11:33:44;97901.03;;;8.88;49.01
3150;BME280;32503;47.748;8.960;2023-01-31T11:36:17;97899.41;;;8.79;48.93
3150;BME280;32503;47.748;8.960;2023-01-31T11:38:48;97906.88;;;8.73;48.79
3150;BME280;32503;47.748;8.960;2023-01-31T11:41:33;97866.91;;;8.49;49.01
3150;BME280;32503;47.748;8.960;2023-01-31T11:44:12;97881.34;;;8.53;49.16
3150;BME280;32503;47.748;8.960;2023-01-31T11:46:46;97894.66;;;8.49;49.15
3150;BME280;32503;47.748;8.960;2023-01-31T11:49:27;97865.25;;;8.22;49.26
3150;BME280;32503;47.748;8.960;2023-01-31T11:51:56;97898.28;;;8.45;49.65
3150;BME280;32503;47.748;8.960;2023-01-31T11:54:27;97884.50;;;8.55;49.66
3150;BME280;32503;47.748;8.960;2023-01-31T11:56:56;97882.94;;;8.71;49.57
3150;BME280;32503;47.748;8.960;2023-01-31T11:59:27;97865.66;;;8.72;49.42
3150;BME280;32503;47.748;8.960;2023-01-31T12:01:58;97885.78;;;8.84;48.91
3150;BME280;32503;47.748;8.960;2023-01-31T12:04:31;97887.06;;;8.95;49.23
3150;BME280;32503;47.748;8.960;2023-01-31T12:07:02;97877.22;;;9.08;48.96
3150;BME280;32503;47.748;8.960;2023-01-31T12:09:40;97852.16;;;8.81;48.47
3150;BME280;32503;47.748;8.960;2023-01-31T12:12:25;97865.63;;;9.07;49.21
3150;BME280;32503;47.748;8.960;2023-01-31T12:14:59;97880.50;;;9.22;48.60
3150;BME280;32503;47.748;8.960;2023-01-31T12:17:29;97857.06;;;9.05;48.42
3150;BME280;32503;47.748;8.960;2023-01-31T12:20:21;97883.97;;;9.32;48.37
3150;BME280;32503;47.748;8.960;2023-01-31T12:23:10;97881.28;;;9.40;47.93
3150;BME280;32503;47.748;8.960;2023-01-31T12:25:55;97850.34;;;9.38;47.16
3150;BME280;32503;47.748;8.960;2023-01-31T12:28:37;97868.31;;;9.25;47.46
3150;BME280;32503;47.748;8.960;2023-01-31T12:31:30;97875.81;;;9.02;47.94
3150;BME280;32503;47.748;8.960;2023-01-31T12:34:22;97871.97;;;9.11;47.77
3150;BME280;32503;47.748;8.960;2023-01-31T12:37:13;97866.88;;;9.19;47.46
3150;BME280;32503;47.748;8.960;2023-01-31T12:40:06;97822.16;;;9.00;47.74
3150;BME280;32503;47.748;8.960;2023-01-31T12:42:53;97835.47;;;9.14;47.40
3150;BME280;32503;47.748;8.960;2023-01-31T12:45:46;97823.72;;;9.10;47.16
3150;BME280;32503;47.748;8.960;2023-01-31T12:49:03;97846.81;;;9.46;46.87
3150;BME280;32503;47.748;8.960;2023-01-31T12:51:41;97831.88;;;9.48;46.99
3150;BME280;32503;47.748;8.960;2023-01-31T12:54:36;97841.06;;;9.56;47.32
3150;BME280;32503;47.748;8.960;2023-01-31T12:57:27;97843.00;;;9.47;46.81
3150;BME280;32503;47.748;8.960;2023-01-31T13:00:11;97825.00;;;9.21;46.64
3150;BME280;32503;47.748;8.960;2023-01-31T13:02:51;97845.53;;;9.43;46.67
3150;BME280;32503;47.748;8.960;2023-01-31T13:05:26;97825.56;;;9.36;46.39
3150;BME280;32503;47.748;8.960;2023-01-31T13:08:00;97838.22;;;9.53;46.94
3150;BME280;32503;47.748;8.960;2023-01-31T13:10:35;97841.28;;;9.42;46.72
3150;BME280;32503;47.748;8.960;2023-01-31T13:13:19;97825.47;;;9.15;46.61
3150;BME280;32503;47.748;8.960;2023-01-31T13:15:51;97815.81;;;9.05;46.13
3150;BME280;32503;47.748;8.960;2023-01-31T13:18:21;97827.69;;;9.21;46.83
3150;BME280;32503;47.748;8.960;2023-01-31T13:20:55;97796.16;;;8.96;46.83
3150;BME280;32503;47.748;8.960;2023-01-31T13:23:31;97785.38;;;8.87;46.67
3150;BME280;32503;47.748;8.960;2023-01-31T13:26:07;97797.09;;;8.91;46.95
3150;BME280;32503;47.748;8.960;2023-01-31T13:28:41;97772.69;;;8.70;47.00
3150;BME280;32503;47.748;8.960;2023-01-31T13:31:18;97773.50;;;8.70;47.72
3150;BME280;32503;47.748;8.960;2023-01-31T13:33:59;97793.16;;;8.80;47.41
3150;BME280;32503;47.748;8.960;2023-01-31T13:36:31;97787.78;;;8.62;47.90
3150;BME280;32503;47.748;8.960;2023-01-31T13:39:07;97800.31;;;8.67;47.52
3150;BME280;32503;47.748;8.960;2023-01-31T13:41:39;97802.19;;;8.58;48.34
3150;BME280;32503;47.748;8.960;2023-01-31T13:44:12;97799.00;;;8.38;48.40
3150;BME280;32503;47.748;8.960;2023-01-31T13:46:46;97799.19;;;8.24;48.50
3150;BME280;32503;47.748;8.960;2023-01-31T13:49:21;97802.81;;;8.20;48.49